This is the latest recevied weather packets stored in our database for station/object XE3JAR. If no packets are shown the sender has not sent any weather packets the latest 10 day(s).
| Time | Temp. | Humidity | Pressure | Rain* | Wind** | Luminosity | Snow |
|---|---|---|---|---|---|---|---|
| 1778223503 | 27.78° C | 90% | 1014.2 hPa | - | - | - | - |
| 1778214303 | 30° C | 79% | 1014.6 hPa | - | - | - | - |
| 1778212496 | 31.11° C | 78% | 1014.2 hPa | - | - | - | - |
| 1778211567 | 31.11° C | 76% | 1014.2 hPa | - | - | - | - |
| 1778211285 | 31.11° C | 76% | 1014.2 hPa | - | - | - | - |
| 1778210052 | 31.11° C | 75% | 1013.9 hPa | - | - | - | - |
| 1778209142 | 31.11° C | 74% | 1014.2 hPa | - | - | - | - |
| 1778208848 | 31.11° C | 74% | 1013.9 hPa | - | - | - | - |
| 1778207625 | 31.11° C | 74% | 1013.9 hPa | - | - | - | - |
| 1778207020 | 32.22° C | 74% | 1013.6 hPa | - | - | - | - |
| 1778204604 | 32.22° C | 78% | 1012.9 hPa | - | - | - | - |
| 1778201262 | 33.89° C | 70% | 1012.2 hPa | - | - | - | - |
| 1778196543 | 37.22° C | 64% | 1011.5 hPa | - | - | - | - |
| 1778195919 | 37.78° C | 63% | 1011.5 hPa | - | - | - | - |
| 1778194129 | 38.89° C | 60% | 1011.2 hPa | - | - | - | - |
| 1778192729 | 40° C | 57% | 1010.8 hPa | - | - | - | - |
| 1778191535 | 41.11° C | 55% | 1011.2 hPa | - | - | - | - |
| 1778190597 | 41.11° C | 55% | 1011.2 hPa | - | - | - | - |
| 1778189377 | 42.22° C | 52% | 1011.2 hPa | - | - | - | - |
| 1778189069 | 42.78° C | 51% | 1011.2 hPa | - | - | - | - |
| 1778186344 | 42.78° C | 50% | 1011.8 hPa | - | - | - | - |
| 1778183635 | 46.11° C | 47% | 1012.2 hPa | - | - | - | - |
| 1778183302 | 46.11° C | 48% | 1012.2 hPa | - | - | - | - |
| 1778176642 | 42.22° C | 53% | 1013.9 hPa | - | - | - | - |
| 1778172558 | 41.11° C | 54% | 1014.6 hPa | - | - | - | - |
* Rain since midnight (hover to see other rain measurements)
** Current wind speed in m/s (hover to see current wind gust speed)